2022年9月27日

时间 代码 天气 温度 能见度 天花板 METAR/SPECI
02:30
V
13 °C 10 km+ 5.000 ft Var Var 1 kt METAR EINN 270130Z VRB01KT 9999 SCT026 BKN050 13/09 Q1011 NOSIG
02:00
V
13 °C 10 km+ 6.000 ft 260° 260° 5 kt METAR EINN 270100Z 26005KT 9999 SCT028 BKN060 13/09 Q1011 NOSIG
01:30
V
13 °C 10 km+ - 280° 280° 8 kt METAR EINN 270030Z 28008KT 9999 SCT026 SCT060 13/08 Q1011 NOSIG
01:00
V
12 °C 10 km+ - 280° 280° 9 kt METAR EINN 270000Z 28009KT 9999 SCT033 SCT070 12/09 Q1011 NOSIG
00:30
V
12 °C 10 km+ 3.700 ft 280° 280° 11 kt METAR EINN 262330Z 28011KT 9999 FEW018 SCT025 BKN037 12/09 Q1012 NOSIG
00:00
V
12 °C 10 km+ - 290° 290° 11 kt METAR EINN 262300Z 29011KT 9999 SCT035 SCT070 12/08 Q1012 NOSIG

2022年9月26日

时间 代码 天气 温度 能见度 天花板 METAR/SPECI
23:30
V
12 °C 10 km+ - 280° 280° 6 kt METAR EINN 262230Z 28006KT 9999 SCT033 12/08 Q1012 NOSIG
23:00
V
12 °C 10 km+ 3.500 ft 300° 300° 9 kt METAR EINN 262200Z 30009KT 9999 BKN035 BKN070 12/08 Q1013 NOSIG
22:30
V
12 °C 10 km+ 8.000 ft 310° 310° 10 kt METAR EINN 262130Z 31010KT 9999 FEW030 SCT038 BKN080 12/09 Q1013 NOSIG
22:00
V
13 °C 10 km+ 3.700 ft 310° 310° 11 kt METAR EINN 262100Z 31011KT 9999 FEW030 BKN037 13/08 Q1013 NOSIG
21:30
V
12 °C 10 km+ 3.400 ft 300° 300° 11 kt METAR EINN 262030Z 30011KT 9999 BKN034 12/08 Q1013 NOSIG
21:00
V
13 °C 10 km+ - 300° 300° 14 kt METAR EINN 262000Z 30014KT 9999 SCT034 SCT180 13/08 Q1012 NOSIG
20:30
V
13 °C 10 km+ - 300° 300° 13 kt METAR EINN 261930Z 30013KT 9999 FEW018 SCT038 13/08 Q1013 NOSIG
20:00
V
13 °C 10 km+ 19.000 ft 310° 310° 12 kt METAR EINN 261900Z 31012KT 9999 SCT042 BKN190 13/08 Q1012 NOSIG
19:30
V
13 °C 10 km+ 4.000 ft 310° 310° 15 kt METAR EINN 261830Z 31015KT 9999 FEW035 BKN040 13/08 Q1013 NOSIG
19:00
V
13 °C 10 km+ 4.200 ft 310° 310° 16 kt METAR EINN 261800Z 31016KT 9999 SCT035 BKN042 13/08 Q1012 NOSIG
18:30
V
13 °C 10 km+ 4.000 ft 310° 310° 14 - 24 kt METAR EINN 261730Z 31014G24KT 9999 FEW030 BKN040 13/07 Q1012 NOSIG
18:00
V
14 °C 10 km+ 4.100 ft 300° 300° 13 kt METAR EINN 261700Z 30013KT 9999 FEW035 BKN041 14/08 Q1012 NOSIG
17:30
V
13 °C 10 km+ 4.000 ft 310° 310° 16 kt METAR EINN 261630Z 31016KT 9999 FEW024 SCT030 BKN040 13/08 Q1012 NOSIG
17:00
V
14 °C 10 km+ 4.000 ft 300° 300° 17 kt METAR EINN 261600Z 30017KT 9999 FEW032 BKN040 14/08 Q1012 NOSIG
16:30
V
14 °C 10 km+ 4.000 ft 310° 310° 14 kt METAR EINN 261530Z 31014KT 9999 FEW032 BKN040 14/07 Q1012 NOSIG
16:00
V
14 °C 10 km+ 4.100 ft 310° 310° 16 kt METAR EINN 261500Z 31016KT 9999 FEW032 BKN041 14/08 Q1012 NOSIG
15:30
V
14 °C 10 km+ 4.200 ft 310° 310° 16 kt METAR EINN 261430Z 31016KT 9999 SCT035 BKN042 14/07 Q1012 NOSIG
15:00
V
14 °C 10 km+ 4.200 ft 310° 310° 18 kt METAR EINN 261400Z 31018KT 9999 FEW016 BKN042 14/08 Q1012 WS RWY24 NOSIG
14:30
V
14 °C 10 km+ 4.000 ft 300° 300° 15 kt METAR EINN 261330Z 30015KT 9999 FEW028 BKN040 BKN050 14/08 Q1012 WS RWY24 NOSIG
14:00
V
15 °C 10 km+ 4.000 ft 310° 310° 17 kt METAR EINN 261300Z 31017KT 9999 FEW028 BKN040 BKN050 15/08 Q1013 WS RWY24 NOSIG
13:30
V
15 °C 10 km+ 4.000 ft 310° 310° 16 kt METAR EINN 261230Z 31016KT 9999 SCT028 BKN040 BKN100 15/08 Q1012 NOSIG
13:00
V
15 °C 10 km+ 3.400 ft 310° 310° 15 - 27 kt METAR EINN 261200Z 31015G27KT 9999 BKN034 BKN044 15/07 Q1012 NOSIG
12:30
V
15 °C 10 km+ 3.500 ft 320° 320° 18 kt METAR EINN 261130Z 32018KT 280V340 9999 BKN035 BKN044 15/07 Q1012 NOSIG
12:00
V
14 °C 10 km+ 3.500 ft 310° 310° 16 kt METAR EINN 261100Z 31016KT 9999 BKN035 BKN044 14/07 Q1012 NOSIG
11:30
V
15 °C 10 km+ 4.400 ft 320° 320° 12 kt METAR EINN 261030Z 32012KT 9999 BKN044 15/07 Q1013 NOSIG
11:00
V
14 °C 10 km+ 4.400 ft 330° 330° 15 kt METAR EINN 261000Z 33015KT 9999 FEW022 BKN044 14/07 Q1013 NOSIG
10:30
V
14 °C 10 km+ 4.600 ft 320° 320° 12 kt METAR EINN 260930Z 32012KT 9999 FEW020 BKN046 14/08 Q1013 NOSIG
10:00
V
13 °C 10 km+ 5.000 ft 310° 310° 10 kt METAR EINN 260900Z 31010KT 9999 FEW018 SCT030 BKN050 13/08 Q1012 NOSIG
09:30
V
13 °C 10 km+ 4.000 ft 310° 310° 9 kt METAR EINN 260830Z 31009KT 9999 FEW018 BKN040 BKN050 13/08 Q1012 NOSIG
09:00
V
13 °C 10 km+ 4.000 ft 310° 310° 11 kt METAR EINN 260800Z 31011KT 9999 FEW018 BKN040 BKN050 13/07 Q1011 NOSIG
08:30
V
12 °C 10 km+ 4.000 ft 300° 300° 9 kt METAR EINN 260730Z 30009KT 9999 FEW018 BKN040 BKN050 12/08 Q1011 NOSIG
08:00
V
13 °C 10 km+ 4.900 ft 310° 310° 8 kt METAR EINN 260700Z 31008KT 9999 FEW032 BKN049 13/07 Q1011 NOSIG
07:30
V
12 °C 10 km+ 5.000 ft 310° 310° 11 kt METAR EINN 260630Z 31011KT 9999 FEW032 BKN050 12/08 Q1011 NOSIG
07:00
V
13 °C 10 km+ 4.800 ft 300° 300° 9 kt METAR EINN 260600Z 30009KT 9999 FEW032 BKN048 13/08 Q1011 NOSIG
06:30
V
13 °C 10 km+ 5.000 ft 300° 300° 9 kt METAR EINN 260530Z 30009KT 9999 FEW030 BKN050 13/09 Q1010 NOSIG
06:00
V
13 °C 10 km+ - 300° 300° 12 kt METAR EINN 260500Z 30012KT 9999 FEW046 13/09 Q1010 NOSIG
05:30
V
13 °C 10 km+ - 300° 300° 15 kt METAR EINN 260430Z 30015KT 9999 SCT046 13/09 Q1010 NOSIG
05:00
V
14 °C 10 km+ 4.900 ft 300° 300° 14 kt METAR EINN 260400Z 30014KT 9999 FEW030 BKN049 14/09 Q1010 NOSIG
04:30
V
14 °C 10 km+ - 310° 310° 14 kt METAR EINN 260330Z 31014KT 280V340 9999 FEW030 SCT049 14/09 Q1010 NOSIG
04:00
V
14 °C 10 km+ - 310° 310° 15 kt METAR EINN 260300Z 31015KT 9999 FEW042 14/10 Q1010 NOSIG
03:30
V
14 °C 10 km+ - 300° 300° 20 kt METAR EINN 260230Z 30020KT 9999 FEW019 SCT027 14/11 Q1010 NOSIG
03:00
V
14 °C 10 km+ - 300° 300° 16 - 28 kt METAR EINN 260200Z 30016G28KT 9999 FEW016 SCT029 14/12 Q1010 NOSIG
02:30
V
15 °C 10 km+ 3.700 ft 300° 300° 19 kt METAR EINN 260130Z 30019KT 9999 FEW013 SCT019 BKN037 15/13 Q1011 NOSIG
02:00
M
15 °C 10 km+ 1.800 ft 300° 300° 18 - 31 kt METAR EINN 260100Z 30018G31KT 9999 -DZ FEW012 BKN018 BKN036 15/14 Q1011 NOSIG
01:30
V
15 °C 10 km+ 3.000 ft 290° 290° 19 kt METAR EINN 260030Z 29019KT 9999 FEW010 SCT016 BKN030 15/14 Q1011 NOSIG
01:00
M
15 °C 9 km 1.200 ft 280° 280° 18 - 31 kt METAR EINN 260000Z 28018G31KT 9000 -DZ FEW008 BKN012 15/15 Q1012 WS RWY24 TEMPO 4000
00:30
M
15 °C 8 km 1.100 ft 280° 280° 16 kt METAR EINN 252330Z 28016KT 8000 -DZ SCT008 BKN011 15/15 Q1012 WS RWY24 TEMPO 4000
00:00
I
15 °C 6 km 700 ft 270° 270° 17 kt METAR EINN 252300Z 27017KT 6000 -DZ FEW004 BKN007 BKN011 15/15 Q1013 WS RWY24 TEMPO 4000

2022年9月25日

时间 代码 天气 温度 能见度 天花板 METAR/SPECI
23:30
I
15 °C 7 km 800 ft 270° 270° 14 kt METAR EINN 252230Z 27014KT 7000 -DZ FEW006 BKN008 15/15 Q1014 WS RWY24 TEMPO 4000
23:00
I
15 °C 5 km 500 ft 270° 270° 16 - 26 kt METAR EINN 252200Z 27016G26KT 5000 -DZ BKN005 BKN007 15/14 Q1014 TEMPO 4000
22:30
I
15 °C 5 km 800 ft 260° 260° 14 kt METAR EINN 252130Z 26014KT 5000 -DZ SCT005 BKN008 15/14 Q1014 TEMPO 4000
22:00
I
14 °C 10 km+ 700 ft 260° 260° 15 kt METAR EINN 252100Z 26015KT 9999 -DZ FEW005 BKN007 14/14 Q1015 TEMPO 4000
21:30
I
14 °C 6 km 500 ft 260° 260° 13 kt METAR EINN 252030Z 26013KT 6000 -DZ BKN005 BKN007 14/13 Q1016 TEMPO 4000
21:00
I
14 °C 7 km 800 ft 260° 260° 13 kt METAR EINN 252000Z 26013KT 7000 -DZ SCT005 BKN008 14/13 Q1016 TEMPO 4000
20:30
V
14 °C 8 km 3.500 ft 260° 260° 15 kt METAR EINN 251930Z 26015KT 8000 -DZ FEW008 SCT015 BKN035 14/12 Q1016 TEMPO BKN010
20:00
M
14 °C 10 km+ 1.600 ft 260° 260° 12 kt METAR EINN 251900Z 26012KT 9999 FEW010 BKN016 BKN025 14/11 Q1017 TEMPO BKN010
19:30
V
14 °C 10 km+ 3.000 ft 270° 270° 13 kt METAR EINN 251830Z 27013KT 9999 FEW018 BKN030 14/11 Q1017 NOSIG
19:00
M
14 °C 10 km+ 2.800 ft 250° 250° 11 kt METAR EINN 251800Z 25011KT 9999 FEW018 BKN028 14/11 Q1017 NOSIG
18:30
V
14 °C 10 km+ 3.000 ft 260° 260° 11 kt METAR EINN 251730Z 26011KT 9999 FEW018 BKN030 BKN200 14/11 Q1018 NOSIG
18:00
V
14 °C 10 km+ 3.600 ft 270° 270° 9 kt METAR EINN 251700Z 27009KT 9999 FEW012 BKN036 BKN200 14/11 Q1019 NOSIG
17:30
V
14 °C 10 km+ 3.500 ft 290° 290° 11 kt METAR EINN 251630Z 29011KT 9999 FEW009 SCT018 BKN035 14/12 Q1019 NOSIG
17:00
M
14 °C 10 km+ 2.800 ft 280° 280° 10 kt METAR EINN 251600Z 28010KT 9999 FEW008 SCT016 BKN028 14/12 Q1020 NOSIG
16:30
I
14 °C 4 km 1.500 ft 280° 280° 14 kt METAR EINN 251530Z 28014KT 4000 -RADZ FEW008 SCT012 BKN015 14/12 Q1020 BECMG 9999
16:00
M
15 °C 10 km+ 2.600 ft 270° 270° 10 kt METAR EINN 251500Z 27010KT 9999 FEW018 BKN026 BKN200 15/11 Q1020 NOSIG
15:30
M
15 °C 10 km+ 2.500 ft 280° 280° 13 kt METAR EINN 251430Z 28013KT 9999 FEW018 BKN025 15/11 Q1021 NOSIG
15:00
M
15 °C 10 km+ 2.500 ft 270° 270° 12 kt METAR EINN 251400Z 27012KT 9999 FEW018 BKN025 15/11 Q1021 NOSIG
14:30
V
15 °C 10 km+ 3.000 ft 270° 270° 11 kt METAR EINN 251330Z 27011KT 9999 FEW015 OVC030 15/10 Q1022 NOSIG
14:00
V
16 °C 10 km+ 3.000 ft 270° 270° 10 kt METAR EINN 251300Z 27010KT 240V320 9999 FEW015 BKN030 BKN060 16/10 Q1022 NOSIG
13:30
V
16 °C 10 km+ 3.400 ft 290° 290° 11 kt METAR EINN 251230Z 29011KT 9999 FEW015 BKN034 16/09 Q1022 NOSIG
13:00
V
14 °C 10 km+ 20.000 ft 300° 300° 10 kt METAR EINN 251200Z 30010KT 9999 FEW012 SCT029 BKN200 14/10 Q1023 NOSIG
12:30
M
14 °C 10 km+ 2.800 ft 250° 250° 8 kt METAR EINN 251130Z 25008KT 210V300 9999 SCT016 BKN028 BKN038 14/11 Q1023 NOSIG
12:00
V
13 °C 10 km+ 4.000 ft 290° 290° 6 kt METAR EINN 251100Z 29006KT 9999 FEW012 SCT022 BKN040 13/11 Q1023 NOSIG
11:30
V
13 °C 10 km+ 4.000 ft 270° 270° 11 kt METAR EINN 251030Z 27011KT 9999 FEW012 SCT022 BKN040 13/10 Q1024 NOSIG
11:00
V
13 °C 10 km+ 14.000 ft 240° 240° 7 kt METAR EINN 251000Z 24007KT 9999 FEW012 SCT035 BKN140 13/10 Q1024 NOSIG
10:30
V
13 °C 10 km+ 14.000 ft 250° 250° 8 kt METAR EINN 250930Z 25008KT 9999 FEW025 SCT037 BKN140 13/09 Q1024 NOSIG
10:00
M
12 °C 10 km+ 2.800 ft 220° 220° 4 kt METAR EINN 250900Z 22004KT 9999 FEW014 BKN028 BKN038 12/09 Q1024 NOSIG
09:30
M
11 °C 10 km+ 2.800 ft 310° 310° 2 kt METAR EINN 250830Z 31002KT 9999 FEW014 BKN028 BKN040 11/09 Q1025 NOSIG
09:00
M
11 °C 10 km+ 2.900 ft 350° 350° 2 kt METAR EINN 250800Z 35002KT 9999 FEW014 BKN029 BKN045 11/08 Q1025 NOSIG
08:30
V
10 °C 10 km+ 3.400 ft Var 000° 0 kt METAR EINN 250730Z 00000KT 9999 FEW025 BKN034 10/08 Q1025 NOSIG
08:00
V
9 °C 10 km+ 4.200 ft Var Var 1 kt METAR EINN 250700Z VRB01KT 9999 FEW025 BKN042 09/07 Q1025 NOSIG
07:30
V
8 °C 10 km+ 4.000 ft Var Var 2 kt METAR EINN 250630Z VRB02KT 9999 FEW020 BKN040 08/07 Q1025 NOSIG
07:00
V
8 °C 10 km+ 4.100 ft 010° 010° 2 kt METAR EINN 250600Z 01002KT 9999 FEW025 BKN041 08/07 Q1025 NOSIG
06:30
V
8 °C 10 km+ 4.200 ft Var Var 3 kt METAR EINN 250530Z VRB03KT 9999 FEW025 BKN042 08/06 Q1025 NOSIG
06:00
V
7 °C 10 km+ 4.500 ft 060° 060° 3 kt METAR EINN 250500Z 06003KT 9999 FEW025 BKN045 07/06 Q1025 NOSIG
05:30
V
7 °C 10 km+ 4.500 ft Var Var 1 kt METAR EINN 250430Z VRB01KT 9999 FEW025 BKN045 07/06 Q1025 NOSIG
05:00
V
7 °C 10 km+ 4.500 ft 190° 190° 2 kt METAR EINN 250400Z 19002KT 9999 FEW030 BKN045 07/06 Q1025 NOSIG
04:30
V
6 °C 10 km+ - 050° 050° 2 kt METAR EINN 250330Z 05002KT 9999 FEW030 SCT045 06/05 Q1025 NOSIG
04:00
V
7 °C 10 km+ - Var Var 1 kt METAR EINN 250300Z VRB01KT 9999 FEW030 07/06 Q1025 NOSIG
03:30
V
7 °C 10 km+ - Var Var 1 kt METAR EINN 250230Z VRB01KT 9999 FEW030 07/06 Q1025 NOSIG
03:00
V
7 °C 10 km+ - Var Var 2 kt METAR EINN 250200Z VRB02KT 9999 FEW030 07/06 Q1026 NOSIG
02:30
V
8 °C 10 km+ - 330° 330° 5 kt METAR EINN 250130Z 33005KT 9999 FEW030 08/06 Q1026 NOSIG
02:00
V
8 °C 10 km+ - 340° 340° 4 kt METAR EINN 250100Z 34004KT 9999 FEW030 08/06 Q1026 NOSIG
01:30
V
8 °C 10 km+ - 360° 360° 4 kt METAR EINN 250030Z 36004KT 9999 FEW030 08/06 Q1026 NOSIG
01:00
V
8 °C 10 km+ - 340° 340° 4 kt METAR EINN 250000Z 34004KT 9999 FEW030 08/07 Q1026 NOSIG
00:30
V
9 °C 10 km+ - 360° 360° 3 kt METAR EINN 242330Z 36003KT 9999 FEW030 SCT200 09/07 Q1026 NOSIG
00:00
V
9 °C 10 km+ 20.000 ft 340° 340° 4 kt METAR EINN 242300Z 34004KT 9999 FEW030 BKN200 09/07 Q1027 NOSIG

2022年9月24日

时间 代码 天气 温度 能见度 天花板 METAR/SPECI
23:30
V
9 °C 10 km+ - 350° 350° 5 kt METAR EINN 242230Z 35005KT 9999 FEW030 SCT220 09/07 Q1026 NOSIG
23:00
V
9 °C 10 km+ - 350° 350° 4 kt METAR EINN 242200Z 35004KT 9999 FEW030 09/07 Q1026 NOSIG
22:30
V
10 °C 10 km+ - 350° 350° 4 kt METAR EINN 242130Z 35004KT 9999 FEW030 10/08 Q1026 NOSIG
22:00
V
11 °C 10 km+ - 350° 350° 7 kt METAR EINN 242100Z 35007KT 9999 FEW030 11/08 Q1026 NOSIG
21:30
V
12 °C 10 km+ - 350° 350° 8 kt METAR EINN 242030Z 35008KT 9999 FEW030 12/08 Q1026 NOSIG
21:00
V
12 °C 10 km+ - 350° 350° 8 kt METAR EINN 242000Z 35008KT 9999 FEW030 12/08 Q1026 NOSIG
20:30
V
12 °C 10 km+ - 340° 340° 6 kt METAR EINN 241930Z 34006KT 9999 FEW035 SCT050 12/08 Q1026 NOSIG
20:00
V
13 °C 10 km+ - 360° 360° 8 kt METAR EINN 241900Z 36008KT 9999 FEW035 SCT050 13/08 Q1025 NOSIG
19:30
V
14 °C 10 km+ - 350° 350° 9 kt METAR EINN 241830Z 35009KT 9999 FEW035 SCT050 14/09 Q1025 NOSIG
19:00
V
14 °C 10 km+ - 350° 350° 9 kt METAR EINN 241800Z 35009KT 9999 FEW035 SCT050 14/09 Q1025 NOSIG
18:30
V
14 °C 10 km+ - 350° 350° 8 kt METAR EINN 241730Z 35008KT 9999 FEW028 SCT050 14/08 Q1025 NOSIG
18:00
V
15 °C 10 km+ 5.000 ft 350° 350° 9 kt METAR EINN 241700Z 35009KT 9999 FEW028 BKN050 15/08 Q1025 NOSIG
较旧的数据

我们和第三方通过cookies跟踪您在我们网站上的上网行为。如果您继续,我们认为您同意我们的cookie政策。 了解更多